Time;durP1;ratioP1;P1;durP2;ratioP2;P2;SDS_P1;SDS_P2;PMS_P1;PMS_P2;Temp;Humidity;BMP_temperature;BMP_pressure;BME280_temperature;BME280_humidity;BME280_pressure;Samples;Min_cycle;Max_cycle;Signal;HPM_P1;HPM_P2
2021/05/16 00:01:08;;;;;;;9.07;2.33;;;18.70;66.20;;;;;;5049020;28;20385;-78
2021/05/16 00:03:34;;;;;;;9.20;2.03;;;18.80;66.30;;;;;;5050494;28;20033;-78
2021/05/16 00:06:00;;;;;;;7.28;2.15;;;18.70;66.20;;;;;;5050191;28;20523;-79
2021/05/16 00:08:26;;;;;;;9.27;1.95;;;18.70;66.20;;;;;;5049631;28;20033;-79
2021/05/16 00:10:51;;;;;;;10.25;3.03;;;18.70;66.30;;;;;;5049813;28;20404;-78
2021/05/16 00:13:17;;;;;;;8.43;2.22;;;18.70;66.30;;;;;;5049986;28;20033;-77
2021/05/16 00:15:43;;;;;;;10.27;2.55;;;18.70;66.30;;;;;;5054497;28;20013;-78
2021/05/16 00:18:09;;;;;;;13.18;2.85;;;18.70;66.30;;;;;;5054336;28;20151;-82
2021/05/16 00:20:35;;;;;;;7.55;2.70;;;18.70;66.20;;;;;;5053665;28;20028;-79
2021/05/16 00:23:03;;;;;;;9.23;2.05;;;18.60;66.20;;;;;;5053782;28;20025;-79
2021/05/16 00:25:29;;;;;;;11.13;2.67;;;18.60;66.30;;;;;;5052851;28;20024;-79
2021/05/16 00:27:55;;;;;;;9.27;2.63;;;18.60;66.20;;;;;;5053462;28;20063;-79
2021/05/16 00:30:25;;;;;;;9.18;2.45;;;18.60;66.20;;;;;;5053747;28;20440;-78
2021/05/16 00:32:51;;;;;;;8.85;2.20;;;18.60;66.20;;;;;;5053585;28;20113;-78
2021/05/16 00:35:19;;;;;;;15.20;3.13;;;18.60;66.10;;;;;;5053630;28;20481;-72
2021/05/16 00:37:45;;;;;;;10.27;2.42;;;18.60;66.80;;;;;;5053808;28;20025;-80
2021/05/16 00:40:11;;;;;;;8.48;1.98;;;18.50;66.10;;;;;;5053258;28;20055;-78
2021/05/16 00:42:37;;;;;;;7.68;2.50;;;18.50;66.10;;;;;;5053617;28;20472;-76
2021/05/16 00:45:12;;;;;;;8.02;2.17;;;18.50;66.10;;;;;;5053262;28;20497;-79
2021/05/16 00:47:38;;;;;;;7.93;2.10;;;18.50;66.10;;;;;;5053592;28;20025;-80
2021/05/16 00:50:08;;;;;;;8.57;2.15;;;18.50;66.10;;;;;;5053227;28;20120;-79
2021/05/16 00:52:34;;;;;;;7.63;2.40;;;18.50;66.10;;;;;;5053292;28;20552;-80
2021/05/16 00:55:00;;;;;;;7.00;2.30;;;18.50;66.10;;;;;;5053716;28;20144;-79
2021/05/16 00:57:25;;;;;;;11.18;3.25;;;18.40;66.00;;;;;;5053406;28;20036;-79
2021/05/16 00:59:51;;;;;;;8.73;2.05;;;18.40;66.00;;;;;;5033614;28;20100;-80
2021/05/16 01:02:18;;;;;;;9.85;2.22;;;18.40;66.00;;;;;;5050612;28;20434;-73
2021/05/16 01:04:44;;;;;;;8.38;2.47;;;18.40;66.00;;;;;;5052788;28;20047;-80
2021/05/16 01:07:10;;;;;;;7.90;2.28;;;18.40;66.00;;;;;;5048296;28;20038;-78
2021/05/16 01:09:36;;;;;;;9.10;2.03;;;18.40;66.00;;;;;;5033215;28;20043;-78
2021/05/16 01:12:04;;;;;;;7.90;2.00;;;18.40;65.90;;;;;;5047235;28;20028;-79
2021/05/16 01:14:35;;;;;;;8.80;2.88;;;18.40;65.90;;;;;;5052848;28;20044;-78
2021/05/16 01:17:01;;;;;;;9.52;2.47;;;18.30;65.80;;;;;;5052786;28;20440;-79
2021/05/16 01:19:30;;;;;;;7.65;2.20;;;18.30;65.80;;;;;;5052278;28;20051;-78
2021/05/16 01:21:57;;;;;;;7.13;2.50;;;18.30;65.80;;;;;;5052763;28;20028;-78
2021/05/16 01:24:24;;;;;;;8.30;2.78;;;18.30;65.80;;;;;;5052344;28;20037;-78
2021/05/16 01:26:51;;;;;;;5.60;1.52;;;18.30;65.80;;;;;;5052697;28;20025;-77
2021/05/16 01:29:18;;;;;;;10.35;2.00;;;18.30;65.80;;;;;;5051315;28;20590;-77
2021/05/16 01:31:44;;;;;;;6.75;2.28;;;18.30;65.80;;;;;;5052953;28;20025;-77
2021/05/16 01:34:10;;;;;;;8.10;2.33;;;18.30;65.80;;;;;;5051523;28;20028;-78
2021/05/16 01:36:37;;;;;;;10.68;2.85;;;18.20;65.80;;;;;;5051942;28;20509;-79
2021/05/16 01:39:06;;;;;;;7.32;2.17;;;18.30;66.50;;;;;;5052454;28;20531;-78
2021/05/16 01:41:32;;;;;;;6.80;2.42;;;18.20;65.70;;;;;;5051070;28;20485;-78
2021/05/16 01:43:58;;;;;;;7.82;2.42;;;18.20;65.70;;;;;;5084472;28;20033;-78
2021/05/16 01:46:24;;;;;;;8.55;1.98;;;18.20;65.70;;;;;;5052155;28;20029;-77
2021/05/16 01:48:50;;;;;;;8.15;2.38;;;18.20;65.60;;;;;;5051898;28;20067;-78
2021/05/16 01:51:16;;;;;;;9.30;2.20;;;18.20;65.70;;;;;;5051743;28;20028;-75
2021/05/16 01:53:41;;;;;;;8.35;1.75;;;18.20;65.60;;;;;;5051208;28;20029;-76
2021/05/16 01:56:08;;;;;;;9.25;2.53;;;18.20;65.70;;;;;;5052603;28;20370;-79
2021/05/16 01:58:39;;;;;;;12.98;3.55;;;18.10;65.60;;;;;;5052011;28;20029;-76
2021/05/16 02:01:05;;;;;;;11.43;2.67;;;18.10;65.60;;;;;;5051892;28;20401;-76
2021/05/16 02:03:32;;;;;;;7.60;2.22;;;18.10;65.70;;;;;;5052166;28;20021;-74
2021/05/16 02:05:59;;;;;;;9.27;2.45;;;18.10;65.60;;;;;;5049937;28;20048;-75
2021/05/16 02:08:25;;;;;;;10.10;2.17;;;18.10;65.60;;;;;;5052213;28;20440;-74
2021/05/16 02:10:50;;;;;;;8.23;1.98;;;18.10;65.60;;;;;;5051945;28;20057;-76
2021/05/16 02:13:16;;;;;;;7.45;2.17;;;18.10;65.60;;;;;;5052172;28;20092;-73
2021/05/16 02:15:43;;;;;;;8.70;3.13;;;18.10;65.60;;;;;;5051935;28;20087;-72
2021/05/16 02:18:13;;;;;;;8.90;2.03;;;18.00;65.60;;;;;;5052136;28;20078;-71
2021/05/16 02:20:39;;;;;;;8.68;2.45;;;18.00;65.60;;;;;;5051131;28;20086;-72
2021/05/16 02:23:05;;;;;;;8.68;2.47;;;18.00;65.60;;;;;;5051807;28;20408;-80
2021/05/16 02:25:30;;;;;;;6.70;2.30;;;18.00;65.60;;;;;;5051594;28;20401;-79
2021/05/16 02:27:56;;;;;;;11.43;3.25;;;18.00;65.60;;;;;;5051637;28;20463;-79
2021/05/16 02:30:23;;;;;;;7.32;2.30;;;18.00;65.50;;;;;;5051336;28;20029;-78
2021/05/16 02:32:50;;;;;;;7.78;2.30;;;18.00;65.50;;;;;;5051242;28;20534;-79
2021/05/16 02:35:16;;;;;;;7.65;2.28;;;18.00;65.50;;;;;;5051871;28;20021;-80
2021/05/16 02:37:42;;;;;;;7.60;2.13;;;18.00;65.50;;;;;;5048750;28;20033;-81
2021/05/16 02:40:09;;;;;;;9.90;2.35;;;18.00;65.40;;;;;;5050943;28;20020;-79
2021/05/16 02:42:35;;;;;;;8.75;2.03;;;18.00;65.40;;;;;;5051250;28;20040;-80
2021/05/16 02:45:02;;;;;;;8.65;2.60;;;18.00;65.40;;;;;;5051079;28;20404;-78
2021/05/16 02:47:28;;;;;;;8.73;2.28;;;17.90;65.30;;;;;;5051136;28;20024;-78
2021/05/16 02:49:53;;;;;;;8.43;2.08;;;17.90;65.30;;;;;;5050813;28;20033;-78
2021/05/16 02:52:19;;;;;;;8.18;2.30;;;17.90;65.30;;;;;;5050857;28;20029;-78
2021/05/16 02:54:45;;;;;;;10.07;2.40;;;17.90;65.30;;;;;;5051812;28;20029;-79
2021/05/16 02:57:11;;;;;;;8.32;2.28;;;17.90;65.40;;;;;;5050987;28;20094;-80
2021/05/16 02:59:36;;;;;;;7.93;2.17;;;17.90;65.40;;;;;;5049341;28;20068;-78
2021/05/16 03:02:02;;;;;;;9.30;2.15;;;17.90;65.30;;;;;;5050844;28;20032;-78
2021/05/16 03:04:28;;;;;;;6.78;2.13;;;17.90;65.30;;;;;;5050887;28;20055;-78
2021/05/16 03:06:53;;;;;;;6.05;2.00;;;17.90;65.30;;;;;;5050377;28;20059;-79
2021/05/16 03:09:19;;;;;;;9.32;2.65;;;17.90;65.30;;;;;;5050988;28;20082;-79
2021/05/16 03:11:45;;;;;;;8.45;2.17;;;17.80;65.30;;;;;;5051185;28;20021;-80
2021/05/16 03:14:11;;;;;;;7.05;1.95;;;17.80;65.20;;;;;;5050912;28;20039;-80
2021/05/16 03:16:36;;;;;;;6.75;2.10;;;17.80;65.20;;;;;;5050950;28;20500;-79
2021/05/16 03:19:03;;;;;;;10.60;2.38;;;17.80;65.30;;;;;;5049681;28;20090;-77
2021/05/16 03:21:28;;;;;;;8.95;1.80;;;17.80;65.20;;;;;;5050258;28;20064;-80
2021/05/16 03:23:54;;;;;;;7.35;1.95;;;17.80;65.30;;;;;;5050843;28;20057;-80
2021/05/16 03:26:20;;;;;;;7.22;2.00;;;17.80;65.40;;;;;;5049528;28;20392;-80
2021/05/16 03:28:46;;;;;;;8.90;2.13;;;17.80;65.40;;;;;;5050911;28;20033;-79
2021/05/16 03:31:11;;;;;;;8.10;2.00;;;17.90;65.60;;;;;;5051058;28;20021;-79
2021/05/16 03:33:37;;;;;;;8.27;2.20;;;17.80;65.50;;;;;;5050262;28;20036;-78
2021/05/16 03:36:03;;;;;;;7.65;2.13;;;17.80;66.00;;;;;;5050736;28;20029;-74
2021/05/16 03:38:29;;;;;;;6.75;1.80;;;17.70;64.70;;;;;;5050536;28;20508;-77
2021/05/16 03:40:54;;;;;;;6.30;1.45;;;17.70;65.30;;;;;;5050341;28;20063;-78
2021/05/16 03:43:22;;;;;;;7.28;1.95;;;17.80;65.40;;;;;;5049956;28;20055;-77
2021/05/16 03:45:48;;;;;;;7.68;2.30;;;17.70;65.30;;;;;;5049985;28;20086;-77
2021/05/16 03:48:13;;;;;;;5.60;1.73;;;17.70;65.30;;;;;;5052133;28;20012;-77
2021/05/16 03:50:39;;;;;;;8.70;2.35;;;17.70;66.00;;;;;;5053794;28;20037;-74
2021/05/16 03:53:05;;;;;;;7.50;1.70;;;17.70;65.30;;;;;;5054575;28;20020;-76
2021/05/16 03:55:30;;;;;;;7.10;1.55;;;17.70;65.30;;;;;;5054655;28;20088;-76
2021/05/16 03:57:56;;;;;;;6.22;1.88;;;17.70;65.20;;;;;;5054182;28;20518;-75
2021/05/16 04:00:22;;;;;;;6.55;1.98;;;17.70;65.20;;;;;;5052935;28;20031;-74
2021/05/16 04:02:48;;;;;;;8.25;1.90;;;17.70;65.20;;;;;;5054589;28;20025;-74
2021/05/16 04:05:14;;;;;;;8.02;2.20;;;17.70;65.20;;;;;;5054291;28;20033;-73
2021/05/16 04:07:40;;;;;;;5.47;1.80;;;17.70;65.20;;;;;;5053555;28;20029;-72
2021/05/16 04:10:07;;;;;;;4.97;1.60;;;17.70;65.20;;;;;;5052769;28;20039;-75
2021/05/16 04:12:33;;;;;;;5.78;1.80;;;17.70;65.20;;;;;;5053817;28;20045;-75
2021/05/16 04:14:59;;;;;;;6.07;1.90;;;17.70;65.10;;;;;;5053979;28;20087;-79
2021/05/16 04:17:25;;;;;;;5.68;1.63;;;17.60;65.10;;;;;;5053641;28;20091;-78
2021/05/16 04:19:50;;;;;;;5.75;1.75;;;17.70;65.10;;;;;;5053355;28;20024;-74
2021/05/16 04:22:16;;;;;;;5.13;1.92;;;17.60;65.00;;;;;;5054171;28;20493;-76
2021/05/16 04:24:42;;;;;;;6.50;1.70;;;17.70;65.00;;;;;;5054037;28;20037;-77
2021/05/16 04:27:07;;;;;;;9.20;1.55;;;17.60;65.10;;;;;;5053869;28;20082;-75
2021/05/16 04:29:33;;;;;;;5.40;1.58;;;17.60;65.00;;;;;;5053890;28;20547;-75
2021/05/16 04:31:59;;;;;;;5.78;1.80;;;17.60;65.00;;;;;;5053890;28;20033;-74
2021/05/16 04:34:24;;;;;;;5.60;1.40;;;17.70;65.10;;;;;;5053575;28;20048;-76
2021/05/16 04:36:50;;;;;;;7.38;1.88;;;17.60;65.10;;;;;;5053720;28;20108;-74
2021/05/16 04:39:16;;;;;;;3.70;1.40;;;17.60;65.10;;;;;;5054412;28;20112;-74
2021/05/16 04:41:42;;;;;;;5.78;1.75;;;17.60;65.10;;;;;;5053485;28;20112;-73
2021/05/16 04:44:08;;;;;;;4.75;1.90;;;17.60;65.00;;;;;;5053564;28;20040;-79
2021/05/16 04:46:34;;;;;;;6.43;1.63;;;17.60;65.00;;;;;;5052943;28;20044;-79
2021/05/16 04:49:00;;;;;;;7.35;1.58;;;17.60;65.00;;;;;;5051841;28;20119;-80
2021/05/16 04:51:25;;;;;;;5.25;1.73;;;17.60;65.00;;;;;;5053088;28;20529;-79
2021/05/16 04:53:52;;;;;;;6.55;1.65;;;17.60;65.00;;;;;;5053375;28;20032;-80
2021/05/16 04:56:17;;;;;;;4.97;1.48;;;17.60;65.00;;;;;;5051934;28;20481;-79
2021/05/16 04:58:43;;;;;;;5.53;1.52;;;17.60;64.90;;;;;;5053581;28;20029;-80
2021/05/16 05:01:09;;;;;;;6.22;1.77;;;17.50;64.80;;;;;;5051683;28;20499;-80
2021/05/16 05:03:35;;;;;;;6.18;1.50;;;17.60;64.90;;;;;;5052621;28;20037;-80
2021/05/16 05:06:00;;;;;;;4.90;1.48;;;17.50;64.80;;;;;;5053449;28;20424;-81
2021/05/16 05:08:26;;;;;;;4.68;1.65;;;17.60;64.80;;;;;;5052662;28;20382;-81
2021/05/16 05:10:52;;;;;;;5.50;1.63;;;17.60;64.80;;;;;;5053240;28;20056;-81
2021/05/16 05:13:18;;;;;;;5.05;1.58;;;17.50;64.70;;;;;;5052283;28;20078;-79
2021/05/16 05:15:44;;;;;;;6.60;2.08;;;17.50;64.70;;;;;;5053284;28;20037;-80
2021/05/16 05:18:10;;;;;;;4.70;1.67;;;17.50;64.60;;;;;;5053355;28;20184;-78
2021/05/16 05:20:35;;;;;;;6.05;1.73;;;17.50;64.60;;;;;;5052117;28;20503;-78
2021/05/16 05:23:01;;;;;;;5.88;1.42;;;17.50;64.60;;;;;;5052931;28;20021;-79
2021/05/16 05:25:29;;;;;;;5.40;1.58;;;17.50;64.70;;;;;;5052697;28;20033;-79
2021/05/16 05:27:56;;;;;;;4.85;1.10;;;17.50;64.60;;;;;;5052803;28;20024;-79
2021/05/16 05:30:23;;;;;;;4.32;1.27;;;17.50;64.60;;;;;;5050723;28;20036;-81
2021/05/16 05:32:49;;;;;;;7.10;1.88;;;17.50;64.60;;;;;;5052665;28;20025;-81
2021/05/16 05:35:15;;;;;;;3.85;1.40;;;17.50;64.60;;;;;;5052839;28;20140;-79
2021/05/16 05:37:40;;;;;;;5.07;1.40;;;17.50;64.70;;;;;;5052599;28;20512;-79
2021/05/16 05:40:07;;;;;;;6.10;1.77;;;17.40;64.70;;;;;;5052699;28;20071;-80
2021/05/16 05:42:32;;;;;;;5.53;1.52;;;17.40;64.80;;;;;;5051201;28;20078;-79
2021/05/16 05:44:58;;;;;;;4.95;1.42;;;17.40;64.80;;;;;;5052280;28;20107;-80
2021/05/16 05:47:24;;;;;;;6.30;1.60;;;17.40;64.70;;;;;;5052164;28;20071;-81
2021/05/16 05:49:49;;;;;;;6.03;2.15;;;17.50;64.80;;;;;;5051930;28;20077;-79
2021/05/16 05:52:15;;;;;;;7.60;1.85;;;17.40;64.80;;;;;;5052601;28;20021;-79
2021/05/16 05:54:41;;;;;;;6.32;1.50;;;17.40;64.80;;;;;;5051063;28;20029;-81
2021/05/16 05:57:06;;;;;;;6.25;1.80;;;17.40;64.80;;;;;;5052268;28;20528;-78
2021/05/16 05:59:32;;;;;;;5.43;1.80;;;17.40;64.80;;;;;;5052356;28;20134;-77
2021/05/16 06:01:59;;;;;;;4.20;1.48;;;17.40;64.80;;;;;;5052310;28;20095;-80
2021/05/16 06:04:25;;;;;;;5.63;1.60;;;17.40;64.80;;;;;;5051348;28;20406;-80
2021/05/16 06:06:51;;;;;;;6.13;1.65;;;17.40;64.90;;;;;;5051487;28;20033;-76
2021/05/16 06:09:16;;;;;;;6.78;1.98;;;17.40;64.80;;;;;;5050408;28;20036;-73
2021/05/16 06:11:42;;;;;;;4.20;1.42;;;17.40;64.90;;;;;;5052014;28;20020;-80
2021/05/16 06:14:08;;;;;;;6.35;2.20;;;17.40;64.90;;;;;;5052206;28;20435;-80
2021/05/16 06:16:33;;;;;;;7.82;2.05;;;17.40;64.90;;;;;;5051243;28;20029;-78
2021/05/16 06:19:00;;;;;;;6.18;1.88;;;17.40;65.00;;;;;;5051565;28;20048;-78
2021/05/16 06:21:27;;;;;;;4.95;1.63;;;17.40;65.00;;;;;;5050900;28;20037;-77
2021/05/16 06:26:31;;;;;;;7.40;1.63;;;17.40;65.10;;;;;;5051514;28;20033;-79
2021/05/16 06:28:56;;;;;;;5.95;1.90;;;17.40;65.10;;;;;;5051220;28;20033;-79
2021/05/16 06:31:23;;;;;;;9.13;2.42;;;17.40;65.10;;;;;;5050926;28;20124;-80
2021/05/16 06:33:50;;;;;;;4.88;1.70;;;17.40;65.20;;;;;;5051273;28;20033;-79
2021/05/16 06:36:15;;;;;;;6.20;1.65;;;17.40;65.20;;;;;;5051798;28;20033;-80
2021/05/16 06:38:41;;;;;;;5.10;1.58;;;17.40;65.20;;;;;;5051156;28;20126;-78
2021/05/16 06:41:07;;;;;;;7.72;1.70;;;17.40;65.30;;;;;;5051362;28;20496;-80
2021/05/16 06:43:32;;;;;;;8.63;2.50;;;17.40;65.40;;;;;;5051102;28;20036;-79
2021/05/16 06:45:58;;;;;;;11.07;2.50;;;17.30;65.30;;;;;;5049839;28;20037;-80
2021/05/16 06:48:26;;;;;;;6.65;2.70;;;17.30;65.40;;;;;;5049989;28;20461;-77
2021/05/16 06:50:52;;;;;;;6.03;1.90;;;17.40;65.50;;;;;;5050345;28;20025;-77
2021/05/16 06:53:17;;;;;;;6.28;1.67;;;17.30;65.50;;;;;;5051144;28;20092;-73
2021/05/16 06:55:43;;;;;;;4.03;1.55;;;17.30;65.60;;;;;;5051723;28;20032;-73
2021/05/16 06:58:09;;;;;;;7.22;2.22;;;17.30;65.60;;;;;;5050934;28;20036;-74
2021/05/16 07:00:34;;;;;;;5.43;1.35;;;17.30;65.60;;;;;;5050726;28;20017;-74
2021/05/16 07:03:00;;;;;;;6.13;2.05;;;17.30;65.70;;;;;;5049972;28;20108;-79
2021/05/16 07:05:25;;;;;;;8.98;2.30;;;17.30;65.80;;;;;;5050768;28;20068;-81
2021/05/16 07:07:51;;;;;;;7.45;1.90;;;17.40;65.70;;;;;;5051254;28;20405;-83
2021/05/16 07:10:17;;;;;;;7.88;1.52;;;17.50;65.70;;;;;;5051213;28;20017;-73
2021/05/16 07:12:42;;;;;;;6.40;2.03;;;17.50;66.00;;;;;;5050907;28;20118;-82
2021/05/16 07:15:12;;;;;;;6.72;1.77;;;17.50;66.00;;;;;;5051321;28;20029;-85
2021/05/16 07:17:37;;;;;;;9.45;2.20;;;17.50;66.10;;;;;;5051474;28;20443;-84
2021/05/16 07:20:04;;;;;;;6.05;2.28;;;17.60;65.80;;;;;;5050618;28;20029;-84
2021/05/16 07:22:30;;;;;;;4.95;1.52;;;17.70;65.70;;;;;;5050105;28;20063;-85
2021/05/16 07:24:55;;;;;;;4.65;1.58;;;17.80;65.80;;;;;;5050711;28;20075;-87
2021/05/16 07:27:21;;;;;;;5.90;1.63;;;17.90;65.50;;;;;;5050446;28;20029;-85
2021/05/16 07:29:49;;;;;;;6.43;2.67;;;17.90;65.50;;;;;;5050078;28;20043;-78
2021/05/16 07:32:15;;;;;;;6.30;1.90;;;18.00;65.40;;;;;;5050226;28;20025;-82
2021/05/16 07:34:40;;;;;;;5.88;2.30;;;18.10;65.60;;;;;;5050478;28;20035;-85
2021/05/16 07:37:06;;;;;;;8.88;2.35;;;18.10;65.40;;;;;;5051152;28;20114;-83
2021/05/16 07:39:31;;;;;;;5.20;1.25;;;18.10;65.30;;;;;;5050205;28;20033;-79
2021/05/16 07:41:57;;;;;;;5.53;1.95;;;18.20;65.50;;;;;;5050435;28;20071;-83
2021/05/16 07:44:23;;;;;;;6.88;1.63;;;18.30;65.40;;;;;;5050242;28;20843;-80
2021/05/16 07:46:48;;;;;;;3.92;1.30;;;18.40;66.00;;;;;;5050953;28;20056;-79
2021/05/16 07:49:14;;;;;;;5.90;2.22;;;18.50;65.10;;;;;;5050464;28;20025;-79
2021/05/16 07:51:41;;;;;;;7.00;2.35;;;18.60;64.90;;;;;;5049835;28;20021;-79
2021/05/16 07:54:07;;;;;;;5.40;1.95;;;18.70;64.70;;;;;;5050498;28;20036;-79
2021/05/16 07:56:33;;;;;;;5.43;1.23;;;18.70;64.60;;;;;;5050453;28;20025;-82
2021/05/16 07:58:58;;;;;;;5.95;2.13;;;18.80;64.90;;;;;;5050303;28;20025;-84
2021/05/16 08:01:24;;;;;;;9.95;1.38;;;18.90;64.60;;;;;;5050631;28;20032;-78
2021/05/16 08:03:50;;;;;;;5.93;1.90;;;18.90;64.50;;;;;;5048481;28;20083;-87
2021/05/16 08:06:15;;;;;;;9.55;1.98;;;19.00;64.40;;;;;;5050934;28;20528;-85
2021/05/16 08:08:41;;;;;;;7.60;1.83;;;19.10;64.30;;;;;;5050542;28;20021;-82
2021/05/16 08:11:07;;;;;;;8.68;1.77;;;19.10;64.50;;;;;;5050221;28;20119;-79
2021/05/16 08:13:32;;;;;;;11.98;1.88;;;19.20;64.50;;;;;;5049164;28;20025;-85
2021/05/16 08:15:58;;;;;;;5.47;1.33;;;19.30;64.30;;;;;;5049310;28;20484;-83
2021/05/16 08:18:24;;;;;;;7.30;1.58;;;19.30;64.40;;;;;;5048626;28;20056;-83
2021/05/16 08:20:50;;;;;;;8.40;1.55;;;19.40;64.40;;;;;;5050463;28;20059;-79
2021/05/16 08:23:15;;;;;;;5.55;2.05;;;19.40;64.10;;;;;;5050787;28;20028;-75
2021/05/16 08:25:41;;;;;;;5.93;1.73;;;19.50;63.80;;;;;;5050182;28;20065;-82
2021/05/16 08:28:08;;;;;;;9.32;1.42;;;19.50;63.70;;;;;;5049737;28;20119;-81
2021/05/16 08:30:34;;;;;;;5.60;1.50;;;19.60;63.20;;;;;;5048567;28;20017;-82
2021/05/16 08:33:00;;;;;;;6.28;1.40;;;19.70;63.10;;;;;;5049148;28;20103;-88
2021/05/16 08:35:25;;;;;;;4.40;1.15;;;19.80;62.80;;;;;;5052326;28;20100;-82
2021/05/16 08:37:51;;;;;;;9.88;1.45;;;19.80;62.70;;;;;;5054485;28;20047;-82
2021/05/16 08:40:17;;;;;;;5.15;1.30;;;19.90;62.60;;;;;;5053613;28;20021;-76
2021/05/16 08:42:44;;;;;;;6.85;1.50;;;19.90;62.30;;;;;;5054608;28;20028;-77
2021/05/16 08:45:12;;;;;;;8.15;1.60;;;19.90;62.20;;;;;;5053955;28;20071;-82
2021/05/16 08:47:43;;;;;;;4.47;1.23;;;20.00;62.20;;;;;;5053842;28;20052;-77
2021/05/16 08:50:11;;;;;;;3.65;1.08;;;20.00;62.10;;;;;;5050910;28;20028;-78
2021/05/16 08:52:38;;;;;;;3.55;0.98;;;19.90;62.00;;;;;;5049976;28;20111;-79
2021/05/16 08:55:05;;;;;;;4.88;1.08;;;19.90;62.20;;;;;;5052491;28;20025;-78
2021/05/16 08:57:31;;;;;;;4.05;1.15;;;19.90;62.20;;;;;;5047316;28;20021;-77
2021/05/16 09:00:05;;;;;;;5.68;1.35;;;19.90;62.20;;;;;;5052632;28;20397;-78
2021/05/16 09:02:31;;;;;;;3.90;1.00;;;19.90;62.20;;;;;;5052073;28;20036;-79
2021/05/16 09:04:57;;;;;;;7.05;2.30;;;20.00;62.30;;;;;;5052453;28;20032;-75
2021/05/16 09:07:30;;;;;;;4.57;1.00;;;19.90;62.20;;;;;;5052265;28;20025;-73
2021/05/16 09:09:56;;;;;;;5.47;1.10;;;19.90;62.30;;;;;;5052516;28;20029;-73
2021/05/16 09:12:23;;;;;;;5.35;1.00;;;19.90;62.20;;;;;;5051906;28;20021;-74
2021/05/16 09:14:52;;;;;;;4.70;1.05;;;19.90;62.10;;;;;;5050887;28;20111;-74
2021/05/16 09:17:23;;;;;;;7.32;1.63;;;19.90;62.80;;;;;;5052395;28;20028;-75
2021/05/16 09:19:51;;;;;;;3.38;1.10;;;20.00;62.10;;;;;;5051142;28;20025;-80
2021/05/16 09:22:41;;;;;;;4.63;1.60;;;19.90;62.00;;;;;;5052065;28;20032;-74
2021/05/16 09:25:10;;;;;;;6.22;1.20;;;20.00;62.50;;;;;;5044193;28;20045;-89
2021/05/16 09:27:37;;;;;;;4.43;1.02;;;19.90;62.90;;;;;;5053161;28;20393;-88
2021/05/16 09:30:23;;;;;;;6.57;1.65;;;20.00;63.00;;;;;;5052459;28;20033;-80
2021/05/16 09:33:00;;;;;;;6.00;1.33;;;20.00;63.50;;;;;;5053268;28;20028;-89
2021/05/16 09:35:35;;;;;;;6.70;1.50;;;20.00;62.50;;;;;;5053073;28;20401;-92
2021/05/16 09:38:21;;;;;;;5.55;1.30;;;20.00;62.40;;;;;;5052967;28;20113;-86
2021/05/16 09:40:55;;;;;;;5.78;1.42;;;20.00;62.40;;;;;;5053281;28;20033;-83
2021/05/16 09:43:22;;;;;;;4.45;1.20;;;20.00;62.70;;;;;;5053008;28;20036;-90
2021/05/16 09:46:02;;;;;;;6.57;1.77;;;19.90;62.60;;;;;;5053045;28;20112;-88
2021/05/16 09:48:37;;;;;;;7.05;1.33;;;19.90;62.60;;;;;;5053281;28;20025;-90
2021/05/16 09:51:06;;;;;;;4.07;1.02;;;19.90;62.40;;;;;;5053369;28;20071;-90
2021/05/16 09:53:32;;;;;;;5.03;1.08;;;19.90;62.30;;;;;;5033161;28;20029;-90
2021/05/16 09:56:32;;;;;;;5.82;1.23;;;19.90;62.30;;;;;;5047021;28;20091;-89
2021/05/16 09:59:09;;;;;;;7.40;1.52;;;19.90;62.30;;;;;;5033172;28;20413;-87
2021/05/16 10:01:37;;;;;;;9.20;1.48;;;19.80;62.30;;;;;;5032824;28;20113;-89
2021/05/16 10:04:03;;;;;;;5.47;1.30;;;19.80;62.30;;;;;;5032971;28;20029;-86
2021/05/16 10:06:30;;;;;;;4.57;1.45;;;19.90;62.40;;;;;;5043684;28;20551;-88
2021/05/16 10:08:56;;;;;;;4.68;1.63;;;19.80;62.10;;;;;;5050848;28;20380;-83
2021/05/16 10:11:30;;;;;;;5.72;1.25;;;19.80;62.00;;;;;;5051299;28;20023;-85
2021/05/16 10:14:03;;;;;;;4.95;1.25;;;19.80;62.80;;;;;;5052138;28;20021;-82
2021/05/16 10:16:40;;;;;;;4.57;1.20;;;19.80;61.90;;;;;;5051556;28;20029;-83
2021/05/16 10:19:06;;;;;;;5.45;1.33;;;19.90;62.10;;;;;;5051551;28;20029;-86
2021/05/16 10:21:32;;;;;;;4.38;1.17;;;19.90;62.20;;;;;;5051479;28;20393;-83
2021/05/16 10:24:15;;;;;;;7.03;1.38;;;19.90;62.30;;;;;;5050986;28;20047;-83
2021/05/16 10:26:42;;;;;;;4.22;1.02;;;19.90;62.60;;;;;;5048348;28;20029;-82
2021/05/16 10:29:10;;;;;;;4.65;0.90;;;19.90;62.60;;;;;;5049671;28;20025;-77
2021/05/16 10:31:47;;;;;;;4.65;1.45;;;19.90;62.70;;;;;;5049904;28;20025;-76
2021/05/16 10:34:28;;;;;;;4.15;0.98;;;20.00;62.70;;;;;;5048101;28;20021;-83
2021/05/16 10:36:55;;;;;;;2.97;0.95;;;20.00;62.90;;;;;;5051736;28;20027;-80
2021/05/16 10:39:39;;;;;;;6.75;1.10;;;20.00;63.00;;;;;;5049515;28;20397;-81
2021/05/16 10:42:12;;;;;;;3.65;1.25;;;19.90;63.10;;;;;;5047979;28;20061;-83
2021/05/16 10:44:40;;;;;;;5.88;1.20;;;19.80;63.30;;;;;;5050824;28;20044;-82
2021/05/16 10:47:06;;;;;;;7.10;1.02;;;19.80;63.60;;;;;;5051212;28;20384;-78
2021/05/16 10:49:33;;;;;;;7.00;1.45;;;19.80;63.90;;;;;;5050964;28;20354;-78
2021/05/16 10:52:29;;;;;;;4.38;1.35;;;19.70;64.10;;;;;;5051181;28;20560;-80
2021/05/16 10:54:55;;;;;;;3.78;1.20;;;19.70;64.60;;;;;;5051526;28;20025;-87
2021/05/16 10:57:24;;;;;;;4.60;0.88;;;19.80;65.00;;;;;;5050245;28;20124;-80
2021/05/16 10:59:50;;;;;;;3.90;1.05;;;19.70;65.10;;;;;;5050269;28;20119;-76
2021/05/16 11:02:54;;;;;;;5.32;1.30;;;19.70;65.50;;;;;;5050759;28;20104;-83
2021/05/16 11:05:47;;;;;;;4.47;1.00;;;19.60;65.70;;;;;;5050793;28;20079;-75
2021/05/16 11:08:18;;;;;;;5.72;1.35;;;19.50;66.20;;;;;;5051170;28;20075;-75
2021/05/16 11:10:45;;;;;;;4.80;1.25;;;19.50;65.90;;;;;;5051250;28;20029;-79
2021/05/16 11:13:15;;;;;;;4.50;1.08;;;19.50;66.20;;;;;;5051194;28;20029;-86
2021/05/16 11:15:52;;;;;;;3.33;0.98;;;19.50;66.40;;;;;;5050943;28;20048;-89
2021/05/16 11:18:19;;;;;;;4.60;1.30;;;19.60;66.40;;;;;;5050230;28;20029;-77
2021/05/16 11:20:56;;;;;;;4.53;1.10;;;19.60;66.90;;;;;;5050472;28;20020;-72
2021/05/16 11:23:29;;;;;;;6.28;1.30;;;19.70;68.00;;;;;;5050130;28;20549;-72
2021/05/16 11:25:59;;;;;;;9.18;1.35;;;19.70;68.10;;;;;;5050258;28;20063;-76
2021/05/16 11:28:26;;;;;;;3.95;0.95;;;19.60;68.40;;;;;;5049986;28;20021;-83
2021/05/16 11:30:53;;;;;;;5.95;1.25;;;19.60;68.10;;;;;;5050356;28;20032;-82
2021/05/16 11:33:30;;;;;;;3.28;0.90;;;19.50;68.40;;;;;;5050093;28;20076;-74
2021/05/16 11:35:56;;;;;;;3.40;0.98;;;19.50;69.10;;;;;;5050404;28;20376;-74
2021/05/16 11:38:31;;;;;;;7.57;0.98;;;19.50;68.60;;;;;;5049828;28;20083;-82
2021/05/16 11:40:57;;;;;;;4.00;1.17;;;19.50;68.70;;;;;;5050266;28;20033;-79
2021/05/16 11:43:34;;;;;;;6.32;1.00;;;19.50;68.80;;;;;;5048411;28;20477;-75
2021/05/16 11:46:02;;;;;;;3.95;0.90;;;19.50;68.80;;;;;;5047555;28;20053;-77
2021/05/16 11:48:33;;;;;;;3.25;0.95;;;19.60;68.50;;;;;;5048111;28;20073;-78
2021/05/16 11:51:10;;;;;;;3.75;0.75;;;19.60;68.40;;;;;;5048241;28;20148;-78
2021/05/16 11:53:40;;;;;;;4.35;1.17;;;19.60;68.40;;;;;;5047616;28;20503;-78
2021/05/16 11:56:09;;;;;;;5.25;1.30;;;19.70;68.30;;;;;;5046722;28;20055;-78
2021/05/16 11:58:37;;;;;;;7.65;1.10;;;19.70;68.20;;;;;;5048367;28;20097;-78
2021/05/16 12:01:09;;;;;;;1.83;0.70;;;19.70;68.20;;;;;;5049051;28;20094;-79
2021/05/16 12:03:35;;;;;;;5.80;1.20;;;19.80;68.00;;;;;;5047281;28;20028;-79
2021/05/16 12:06:06;;;;;;;4.55;1.42;;;19.80;67.90;;;;;;5049564;28;20104;-77
2021/05/16 12:08:33;;;;;;;4.78;1.38;;;19.80;67.90;;;;;;5047303;28;20025;-78
2021/05/16 12:11:15;;;;;;;5.47;1.20;;;19.90;68.40;;;;;;5052389;28;20060;-79
2021/05/16 12:13:41;;;;;;;3.50;0.95;;;20.00;68.20;;;;;;5051267;28;20362;-79
2021/05/16 12:16:19;;;;;;;3.65;0.98;;;20.10;68.20;;;;;;5049895;28;20086;-77
2021/05/16 12:18:46;;;;;;;5.55;1.23;;;20.10;68.10;;;;;;5052007;28;20566;-77
2021/05/16 12:21:13;;;;;;;4.45;0.95;;;20.20;67.70;;;;;;5052681;28;20519;-78
2021/05/16 12:23:39;;;;;;;4.82;1.23;;;20.20;67.60;;;;;;5049881;28;20374;-78
2021/05/16 12:26:06;;;;;;;3.85;1.08;;;20.20;68.40;;;;;;5051591;28;20039;-78
2021/05/16 12:28:32;;;;;;;4.18;1.08;;;20.10;67.70;;;;;;5053214;28;20021;-77
2021/05/16 12:30:58;;;;;;;3.08;1.10;;;20.10;67.80;;;;;;5048407;28;20036;-79
2021/05/16 12:33:25;;;;;;;3.17;1.20;;;20.20;67.60;;;;;;5051122;28;20069;-79
2021/05/16 12:35:51;;;;;;;3.20;0.82;;;20.30;67.20;;;;;;5053401;28;20039;-79
2021/05/16 12:38:17;;;;;;;4.03;1.08;;;20.40;66.80;;;;;;5052349;28;20025;-74
2021/05/16 12:40:44;;;;;;;3.60;1.05;;;20.40;66.70;;;;;;5058819;28;20571;-78
2021/05/16 12:43:13;;;;;;;3.38;1.35;;;20.30;66.60;;;;;;5054131;28;20040;-79
2021/05/16 12:45:41;;;;;;;3.63;1.38;;;20.30;66.80;;;;;;5053766;28;20068;-79
2021/05/16 12:48:16;;;;;;;3.42;0.90;;;20.30;66.70;;;;;;5051917;28;20025;-80
2021/05/16 12:50:46;;;;;;;3.28;1.00;;;20.30;66.60;;;;;;5052089;28;20091;-80